createdAt,value
2023-04-28T00:03:59.364Z,21.20
2023-04-28T00:16:59.081Z,19.80
2023-04-28T00:29:59.052Z,18.30
2023-04-28T00:42:59.068Z,17.70
2023-04-28T00:55:59.075Z,16.15
2023-04-28T01:08:59.100Z,15.40
2023-04-28T01:21:59.107Z,15.00
2023-04-28T01:34:59.092Z,13.70
2023-04-28T01:47:59.117Z,12.80
2023-04-28T02:00:59.110Z,12.30
2023-04-28T02:13:59.111Z,11.10
2023-04-28T02:26:59.110Z,10.50
2023-04-28T02:39:59.124Z,10.50
2023-04-28T02:52:59.123Z,9.90
2023-04-28T03:05:59.159Z,8.90
2023-04-28T03:18:59.164Z,8.70
2023-04-28T03:31:59.220Z,7.90
2023-04-28T03:44:59.192Z,7.50
2023-04-28T03:57:59.173Z,7.40
2023-04-28T04:11:59.189Z,7.00
2023-04-28T04:25:59.194Z,6.10
2023-04-28T04:39:59.196Z,5.60
2023-04-28T04:54:59.203Z,5.65
2023-04-28T05:08:59.229Z,5.20
2023-04-28T05:22:59.202Z,5.00
2023-04-28T05:36:59.208Z,4.60
2023-04-28T05:50:59.224Z,4.60
2023-04-28T06:04:59.462Z,4.50
2023-04-28T06:18:59.237Z,4.00
2023-04-28T06:32:59.253Z,4.00
2023-04-28T06:46:59.301Z,3.80
2023-04-28T07:00:59.278Z,3.80
2023-04-28T07:14:59.271Z,3.60
2023-04-28T07:28:59.257Z,3.40
2023-04-28T07:40:59.253Z,3.40
2023-04-28T07:51:59.262Z,3.20
2023-04-28T08:05:59.337Z,3.10
2023-04-28T08:16:59.279Z,2.90
2023-04-28T08:27:59.286Z,2.90
2023-04-28T08:41:59.274Z,2.95
2023-04-28T08:52:59.306Z,2.90
2023-04-28T09:06:59.296Z,2.50
2023-04-28T09:17:59.321Z,2.50
2023-04-28T09:31:59.378Z,2.80
2023-04-28T09:45:59.338Z,2.30
2023-04-28T09:59:59.293Z,2.35
2023-04-28T10:13:59.291Z,2.40
2023-04-28T10:27:59.298Z,2.00
2023-04-28T10:41:59.335Z,2.10
2023-04-28T10:55:59.339Z,1.80
2023-04-28T11:09:59.317Z,1.90
2023-04-28T11:23:59.332Z,1.60
2023-04-28T11:37:59.348Z,2.60
2023-04-28T11:50:59.414Z,3.90
2023-04-28T12:04:59.367Z,3.80
2023-04-28T12:18:59.375Z,3.80
2023-04-28T12:32:59.384Z,4.60
2023-04-28T12:43:59.378Z,4.35
2023-04-28T12:57:59.405Z,4.50
2023-04-28T13:11:59.382Z,4.40
2023-04-28T13:25:59.386Z,3.85
2023-04-28T13:39:59.390Z,3.95
2023-04-28T13:53:59.397Z,4.30
2023-04-28T14:07:59.390Z,4.70
2023-04-28T14:21:59.394Z,5.25
2023-04-28T14:35:59.440Z,5.15
2023-04-28T14:49:59.409Z,5.50
2023-04-28T15:03:59.488Z,5.40
2023-04-28T15:17:59.441Z,4.90
2023-04-28T15:31:59.472Z,4.30
2023-04-28T15:45:59.504Z,4.70
2023-04-28T15:59:59.454Z,4.10
2023-04-28T16:13:59.457Z,4.10
2023-04-28T16:27:59.512Z,3.40
2023-04-28T16:41:59.547Z,3.60
2023-04-28T16:55:59.579Z,3.50
2023-04-28T17:09:59.561Z,3.40
2023-04-28T17:23:59.604Z,3.40
2023-04-28T17:37:59.663Z,3.30
2023-04-28T17:51:59.688Z,3.30
2023-04-28T18:05:59.723Z,3.40
2023-04-28T18:20:59.901Z,3.10
2023-04-28T18:34:59.845Z,3.10
2023-04-28T18:48:59.873Z,3.00
2023-04-28T19:02:59.992Z,18.50
2023-04-28T19:15:59.884Z,10.50
2023-04-28T19:28:59.878Z,11.60
2023-04-28T19:41:59.875Z,11.10
2023-04-28T19:54:59.885Z,10.50
2023-04-28T20:07:59.892Z,9.30
2023-04-28T20:20:59.888Z,8.60
2023-04-28T20:33:59.928Z,8.20
2023-04-28T20:46:59.937Z,7.60
2023-04-28T20:59:59.910Z,6.80
2023-04-28T21:12:59.928Z,6.70
2023-04-28T21:25:59.946Z,5.80
2023-04-28T21:38:59.920Z,5.90
2023-04-28T21:51:59.931Z,5.50
2023-04-28T22:04:59.943Z,5.20
2023-04-28T22:17:59.985Z,5.00
2023-04-28T22:30:59.961Z,4.90
2023-04-28T22:43:59.955Z,4.40
2023-04-28T22:57:00.158Z,4.30
2023-04-28T23:10:00.182Z,3.80
2023-04-28T23:23:00.145Z,3.70
2023-04-28T23:36:00.147Z,3.40
2023-04-28T23:49:00.135Z,3.30
